Time;durP1;ratioP1;P1;durP2;ratioP2;P2;SDS_P1;SDS_P2;PMS_P1;PMS_P2;Temp;Humidity;BMP_temperature;BMP_pressure;BME280_temperature;BME280_humidity;BME280_pressure;Samples;Min_cycle;Max_cycle;Signal;HPM_P1;HPM_P2
2023/12/16 00:01:21;;;;;;;7.68;4.20;;;-0.50;99.90;;;;;;4916508;29;20044;-79
2023/12/16 00:03:48;;;;;;;9.10;4.43;;;0.00;99.90;;;;;;4907289;29;20160;-81
2023/12/16 00:06:14;;;;;;;6.75;4.18;;;-0.30;99.90;;;;;;4929169;29;20118;-79
2023/12/16 00:08:39;;;;;;;8.02;4.47;;;-0.10;99.90;;;;;;4935586;29;20231;-79
2023/12/16 00:11:05;;;;;;;8.93;3.95;;;-0.10;99.90;;;;;;4935688;29;20055;-80
2023/12/16 00:13:30;;;;;;;11.20;4.82;;;-0.30;99.90;;;;;;4921706;29;20024;-80
2023/12/16 00:15:56;;;;;;;10.65;5.07;;;-0.30;99.90;;;;;;4920762;29;20039;-80
2023/12/16 00:18:22;;;;;;;18.95;7.60;;;-0.40;99.90;;;;;;4934833;29;20032;-81
2023/12/16 00:20:48;;;;;;;10.15;6.78;;;-0.30;99.90;;;;;;4915000;29;20445;-80
2023/12/16 00:23:13;;;;;;;9.85;5.57;;;-0.20;99.90;;;;;;4917184;29;20057;-80
2023/12/16 00:25:39;;;;;;;10.85;6.13;;;-0.30;99.90;;;;;;4909478;29;20028;-81
2023/12/16 00:28:05;;;;;;;11.68;5.07;;;-0.40;99.90;;;;;;4898943;29;20038;-81
2023/12/16 00:30:30;;;;;;;7.90;4.20;;;-0.60;99.90;;;;;;4922753;29;20062;-80
2023/12/16 00:32:58;;;;;;;10.15;5.35;;;-0.70;99.90;;;;;;4935023;29;20082;-81
2023/12/16 00:35:24;;;;;;;10.00;4.60;;;-0.70;99.90;;;;;;4931610;29;20031;-81
2023/12/16 00:37:50;;;;;;;10.93;4.38;;;-0.70;99.90;;;;;;4935667;29;20020;-80
2023/12/16 00:40:15;;;;;;;8.45;5.07;;;-0.60;99.90;;;;;;4934145;29;20035;-80
2023/12/16 00:42:41;;;;;;;10.88;5.53;;;-0.70;99.90;;;;;;4933083;29;20054;-81
2023/12/16 00:45:07;;;;;;;9.68;5.28;;;-0.60;99.90;;;;;;4908858;29;20440;-81
2023/12/16 00:47:33;;;;;;;15.57;4.82;;;-0.50;99.90;;;;;;4933565;29;20118;-82
2023/12/16 00:49:58;;;;;;;7.50;5.20;;;-0.40;99.90;;;;;;4935412;29;20024;-80
2023/12/16 00:52:24;;;;;;;9.32;5.57;;;-0.40;99.90;;;;;;4934625;29;20034;-81
2023/12/16 00:54:51;;;;;;;12.70;6.35;;;-0.40;99.90;;;;;;4932158;29;20031;-81
2023/12/16 00:57:16;;;;;;;13.30;5.95;;;-0.50;99.90;;;;;;4917212;29;20112;-80
2023/12/16 00:59:42;;;;;;;11.45;5.47;;;-0.50;99.90;;;;;;4915711;29;20103;-81
2023/12/16 01:02:08;;;;;;;8.82;5.53;;;-0.50;99.90;;;;;;4908587;29;20083;-79
2023/12/16 01:04:33;;;;;;;10.50;5.38;;;-0.60;99.90;;;;;;4934846;29;20053;-81
2023/12/16 01:06:59;;;;;;;12.45;6.18;;;-0.70;99.90;;;;;;4923082;29;20118;-81
2023/12/16 01:09:25;;;;;;;11.10;6.50;;;-0.90;99.90;;;;;;4915988;29;20437;-81
2023/12/16 01:11:50;;;;;;;14.20;6.00;;;-0.90;99.90;;;;;;4915858;29;20028;-81
2023/12/16 01:14:16;;;;;;;12.07;6.22;;;-1.00;99.90;;;;;;4915418;29;20786;-81
2023/12/16 01:16:42;;;;;;;10.68;5.53;;;-0.80;99.90;;;;;;4898120;29;20028;-81
2023/12/16 01:19:08;;;;;;;18.98;6.65;;;-0.50;99.90;;;;;;4916088;29;20020;-80
2023/12/16 01:21:40;;;;;;;10.13;5.93;;;-0.30;99.90;;;;;;4915806;29;20068;-80
2023/12/16 01:24:06;;;;;;;10.32;6.43;;;-0.50;99.90;;;;;;4897416;29;20075;-81
2023/12/16 01:26:32;;;;;;;13.05;6.10;;;-0.60;99.90;;;;;;4912160;29;20032;-80
2023/12/16 01:28:57;;;;;;;12.38;6.95;;;-0.70;99.90;;;;;;4896131;29;20032;-80
2023/12/16 01:31:23;;;;;;;14.48;6.40;;;-0.80;99.90;;;;;;4896357;29;20481;-80
2023/12/16 01:33:49;;;;;;;10.02;5.95;;;-0.80;99.90;;;;;;4913398;29;20028;-80
2023/12/16 01:36:14;;;;;;;15.50;5.20;;;-0.80;99.90;;;;;;4913100;29;20028;-80
2023/12/16 01:38:40;;;;;;;17.02;7.13;;;-0.30;99.90;;;;;;4895870;29;20519;-80
2023/12/16 01:41:06;;;;;;;13.80;6.47;;;-0.80;99.90;;;;;;4896252;29;20044;-80
2023/12/16 01:43:32;;;;;;;13.10;7.00;;;-0.80;99.90;;;;;;4901974;29;20031;-80
2023/12/16 01:46:03;;;;;;;14.02;7.07;;;-0.70;99.90;;;;;;4890916;29;20036;-79
2023/12/16 01:48:31;;;;;;;12.13;6.07;;;-0.90;99.90;;;;;;4913785;29;20051;-79
2023/12/16 01:50:57;;;;;;;10.80;5.90;;;-1.00;99.90;;;;;;4913879;29;20635;-79
2023/12/16 01:53:23;;;;;;;11.07;5.22;;;-1.20;99.90;;;;;;4897818;29;20063;-79
2023/12/16 01:55:49;;;;;;;11.32;6.38;;;-1.20;99.90;;;;;;4913697;29;20056;-79
2023/12/16 01:58:15;;;;;;;10.43;6.00;;;-1.40;99.90;;;;;;4896343;29;20520;-79
2023/12/16 02:00:42;;;;;;;11.63;6.60;;;-1.50;99.90;;;;;;4896358;29;20086;-79
2023/12/16 02:03:08;;;;;;;12.35;5.68;;;-1.50;99.90;;;;;;4897242;29;20020;-79
2023/12/16 02:05:34;;;;;;;9.63;5.50;;;-1.50;99.90;;;;;;4897387;29;20552;-79
2023/12/16 02:07:59;;;;;;;11.98;5.55;;;-1.50;99.90;;;;;;4923975;29;20406;-78
2023/12/16 02:10:25;;;;;;;9.70;4.70;;;-1.50;99.90;;;;;;4912915;29;20500;-79
2023/12/16 02:12:51;;;;;;;10.32;5.05;;;-1.40;99.90;;;;;;4912618;29;20114;-78
2023/12/16 02:15:16;;;;;;;6.28;4.55;;;-1.30;99.90;;;;;;4921152;29;20058;-79
2023/12/16 02:17:42;;;;;;;9.02;4.55;;;-1.30;99.90;;;;;;4913433;29;20052;-79
2023/12/16 02:20:08;;;;;;;13.25;5.25;;;-1.20;99.90;;;;;;4925559;29;20036;-78
2023/12/16 02:22:34;;;;;;;7.55;4.57;;;-1.40;99.90;;;;;;4933240;29;20035;-78
2023/12/16 02:25:01;;;;;;;6.95;5.00;;;-1.40;99.90;;;;;;4932307;29;20099;-79
2023/12/16 02:27:29;;;;;;;8.43;4.90;;;-1.60;99.90;;;;;;4899176;29;20039;-78
2023/12/16 02:29:55;;;;;;;8.23;4.73;;;-1.60;99.90;;;;;;4928262;29;20034;-78
2023/12/16 02:32:22;;;;;;;9.70;5.93;;;-1.60;99.90;;;;;;4933169;29;20741;-78
2023/12/16 02:34:48;;;;;;;12.65;5.97;;;-1.50;99.90;;;;;;4931534;29;20019;-78
2023/12/16 02:37:14;;;;;;;14.25;5.50;;;-1.50;99.90;;;;;;4931341;29;20032;-78
2023/12/16 02:39:39;;;;;;;19.88;6.68;;;-0.90;99.90;;;;;;4921368;29;20059;-79
2023/12/16 02:42:05;;;;;;;7.40;4.80;;;-1.40;99.90;;;;;;4911420;29;20031;-79
2023/12/16 02:44:31;;;;;;;9.90;5.55;;;-1.50;99.90;;;;;;4929779;29;20365;-79
2023/12/16 02:46:56;;;;;;;8.80;5.25;;;-1.40;99.90;;;;;;4932917;29;20669;-78
2023/12/16 02:49:22;;;;;;;9.95;5.28;;;-1.40;99.90;;;;;;4932358;29;20023;-78
2023/12/16 02:51:48;;;;;;;10.93;5.32;;;-1.40;99.90;;;;;;4932347;29;20194;-78
2023/12/16 02:54:14;;;;;;;12.05;5.38;;;-1.50;99.90;;;;;;4923763;29;20024;-78
2023/12/16 02:56:39;;;;;;;11.65;5.47;;;-1.60;99.90;;;;;;4912239;29;20032;-79
2023/12/16 02:59:05;;;;;;;10.15;5.07;;;-1.70;99.90;;;;;;4912390;29;20040;-78
2023/12/16 03:01:31;;;;;;;10.27;5.75;;;-1.70;99.90;;;;;;4912455;29;20039;-78
2023/12/16 03:03:56;;;;;;;9.63;5.18;;;-1.70;99.90;;;;;;4930663;29;20099;-78
2023/12/16 03:06:22;;;;;;;8.85;4.90;;;-1.70;99.90;;;;;;4929473;29;20043;-78
2023/12/16 03:08:48;;;;;;;13.00;5.60;;;-1.40;99.90;;;;;;4912592;29;20047;-78
2023/12/16 03:11:13;;;;;;;12.88;5.85;;;-1.80;99.90;;;;;;4910948;29;20394;-78
2023/12/16 03:13:39;;;;;;;17.65;5.30;;;-1.70;99.90;;;;;;4909798;29;20080;-78
2023/12/16 03:16:05;;;;;;;11.73;5.65;;;-1.70;99.90;;;;;;4918014;29;20120;-78
2023/12/16 03:18:31;;;;;;;10.98;5.30;;;-1.70;99.90;;;;;;4909666;29;20512;-78
2023/12/16 03:20:56;;;;;;;21.52;7.45;;;-1.70;99.90;;;;;;4913149;29;20051;-78
2023/12/16 03:23:25;;;;;;;17.10;6.53;;;-1.70;99.90;;;;;;4916109;29;20441;-78
2023/12/16 03:25:51;;;;;;;11.23;4.95;;;-1.50;99.90;;;;;;4912996;29;20507;-78
2023/12/16 03:28:16;;;;;;;12.95;5.85;;;-1.40;99.90;;;;;;4911951;29;20036;-77
2023/12/16 03:30:42;;;;;;;14.02;5.75;;;-1.10;99.90;;;;;;4913241;29;20111;-79
2023/12/16 03:33:08;;;;;;;17.40;5.65;;;-1.20;99.90;;;;;;4912927;29;20029;-78
2023/12/16 03:35:33;;;;;;;10.40;5.43;;;-1.20;99.90;;;;;;4911645;29;20028;-77
2023/12/16 03:38:00;;;;;;;14.18;6.95;;;-1.10;99.90;;;;;;4911760;29;20413;-77
2023/12/16 03:40:26;;;;;;;12.35;5.03;;;-1.20;99.90;;;;;;4911701;29;20405;-77
2023/12/16 03:42:52;;;;;;;9.70;5.65;;;-1.30;99.90;;;;;;4924330;29;20088;-77
2023/12/16 03:45:18;;;;;;;13.00;6.38;;;-1.20;99.90;;;;;;4913124;29;20505;-78
2023/12/16 03:47:43;;;;;;;13.80;5.90;;;-1.20;99.90;;;;;;4913054;29;20064;-77
2023/12/16 03:50:09;;;;;;;13.77;5.15;;;-1.30;99.90;;;;;;4909626;29;20028;-77
2023/12/16 03:52:35;;;;;;;11.30;5.97;;;-1.40;99.90;;;;;;4912866;29;20024;-77
2023/12/16 03:55:01;;;;;;;10.73;5.13;;;-1.50;99.90;;;;;;4924862;29;20066;-77
2023/12/16 03:57:29;;;;;;;8.13;4.85;;;-1.60;99.90;;;;;;4912826;29;20043;-77
2023/12/16 03:59:56;;;;;;;9.35;5.25;;;-1.80;99.90;;;;;;4912705;29;20067;-77
2023/12/16 04:02:21;;;;;;;14.52;6.65;;;-1.80;99.90;;;;;;4910412;29;20363;-78
2023/12/16 04:04:47;;;;;;;9.63;5.45;;;-1.80;99.90;;;;;;4912616;29;20038;-77
2023/12/16 04:07:13;;;;;;;11.20;4.82;;;-1.90;99.90;;;;;;4913182;29;20517;-76
2023/12/16 04:09:42;;;;;;;13.10;6.07;;;-1.80;99.90;;;;;;4932124;29;20147;-77
2023/12/16 04:12:09;;;;;;;9.55;5.53;;;-1.90;99.90;;;;;;4931484;29;20441;-77
2023/12/16 04:14:39;;;;;;;11.02;5.35;;;-1.80;99.90;;;;;;4927791;29;20177;-77
2023/12/16 04:17:05;;;;;;;11.43;5.05;;;-1.80;99.90;;;;;;4926045;29;20047;-77
2023/12/16 04:19:31;;;;;;;14.82;5.70;;;-1.80;99.90;;;;;;4919967;29;20106;-76
2023/12/16 04:21:56;;;;;;;7.65;4.25;;;-1.90;99.90;;;;;;4929674;29;20472;-77
2023/12/16 04:24:22;;;;;;;9.60;5.47;;;-1.90;99.90;;;;;;4932737;29;20016;-77
2023/12/16 04:26:48;;;;;;;15.88;5.72;;;-1.90;99.90;;;;;;4934954;29;20042;-77
2023/12/16 04:29:14;;;;;;;13.10;5.97;;;-1.90;99.90;;;;;;4934535;29;20051;-78
2023/12/16 04:31:40;;;;;;;13.93;6.18;;;-1.80;99.90;;;;;;4931498;29;20169;-77
2023/12/16 04:34:05;;;;;;;53.25;8.32;;;-1.80;99.90;;;;;;4933676;29;20024;-77
2023/12/16 04:36:31;;;;;;;24.92;7.00;;;-1.70;99.90;;;;;;4918576;29;20462;-78
2023/12/16 04:38:57;;;;;;;23.27;8.50;;;-1.70;99.90;;;;;;4916008;29;20064;-78
2023/12/16 04:41:23;;;;;;;51.95;9.77;;;-1.50;99.90;;;;;;4915795;29;20370;-77
2023/12/16 04:43:48;;;;;;;21.10;7.72;;;-1.40;99.90;;;;;;4922502;29;20075;-78
2023/12/16 04:46:22;;;;;;;24.42;8.85;;;-1.00;99.90;;;;;;4921116;29;20028;-77
2023/12/16 04:48:48;;;;;;;12.90;6.18;;;-1.30;99.90;;;;;;4915545;29;20028;-78
2023/12/16 04:51:14;;;;;;;13.55;7.13;;;-1.30;99.90;;;;;;4915736;29;20172;-78
2023/12/16 04:53:39;;;;;;;13.00;5.82;;;-0.60;99.90;;;;;;4914278;29;20542;-78
2023/12/16 04:56:06;;;;;;;13.50;6.47;;;-1.40;99.90;;;;;;4914258;29;20035;-78
2023/12/16 04:58:32;;;;;;;14.27;6.47;;;-1.40;99.90;;;;;;4914245;29;20060;-77
2023/12/16 05:00:57;;;;;;;20.67;7.82;;;-1.50;99.90;;;;;;4915443;29;20118;-78
2023/12/16 05:03:23;;;;;;;11.30;5.38;;;-1.60;99.90;;;;;;4923498;29;20110;-78
2023/12/16 05:05:49;;;;;;;15.48;7.80;;;-1.70;99.90;;;;;;4932975;29;20037;-78
2023/12/16 05:08:15;;;;;;;12.13;5.63;;;-1.50;99.90;;;;;;4934533;29;20043;-77
2023/12/16 05:10:41;;;;;;;12.25;6.10;;;-1.70;99.90;;;;;;4932860;29;20417;-78
2023/12/16 05:13:10;;;;;;;12.45;6.03;;;-1.80;99.90;;;;;;4915107;29;20027;-78
2023/12/16 05:15:38;;;;;;;8.20;5.10;;;-1.80;99.90;;;;;;4929319;29;20071;-78
2023/12/16 05:18:05;;;;;;;18.10;6.57;;;-1.90;99.90;;;;;;4929624;29;20276;-77
2023/12/16 05:20:31;;;;;;;11.77;5.60;;;-1.80;99.90;;;;;;4930173;29;20040;-78
2023/12/16 05:22:59;;;;;;;11.18;5.57;;;-1.90;99.90;;;;;;4933453;29;20054;-77
2023/12/16 05:25:28;;;;;;;10.95;5.32;;;-1.90;99.90;;;;;;4932927;29;20431;-78
2023/12/16 05:27:54;;;;;;;11.07;5.57;;;-1.90;99.90;;;;;;4921430;29;20031;-78
2023/12/16 05:30:20;;;;;;;11.63;5.60;;;-2.00;99.90;;;;;;4912506;29;20036;-78
2023/12/16 05:32:45;;;;;;;11.43;5.97;;;-2.00;99.90;;;;;;4913775;29;20080;-78
2023/12/16 05:35:11;;;;;;;10.35;5.15;;;-1.70;99.90;;;;;;4913944;29;20028;-78
2023/12/16 05:37:37;;;;;;;11.50;5.28;;;-2.10;99.90;;;;;;4933804;29;20511;-78
2023/12/16 05:40:03;;;;;;;8.27;5.68;;;-2.20;99.90;;;;;;4933487;29;20059;-78
2023/12/16 05:42:29;;;;;;;9.32;4.85;;;-2.20;99.90;;;;;;4931623;29;20024;-78
2023/12/16 05:44:55;;;;;;;10.50;5.65;;;-2.20;99.90;;;;;;4925718;29;20524;-78
2023/12/16 05:47:21;;;;;;;12.48;4.95;;;-2.20;99.90;;;;;;4932402;29;20023;-78
2023/12/16 05:49:47;;;;;;;9.63;5.50;;;-2.30;99.90;;;;;;4933419;29;20023;-79
2023/12/16 05:52:13;;;;;;;10.88;6.25;;;-2.20;99.90;;;;;;4933459;29;20035;-78
2023/12/16 05:54:38;;;;;;;10.57;5.70;;;-2.10;99.90;;;;;;4923633;29;20032;-78
2023/12/16 05:57:04;;;;;;;10.23;4.60;;;-2.10;99.90;;;;;;4908702;29;20030;-79
2023/12/16 05:59:30;;;;;;;7.22;4.60;;;-2.10;99.90;;;;;;4933269;29;20039;-78
2023/12/16 06:01:56;;;;;;;9.48;5.78;;;-2.20;99.90;;;;;;4933704;29;20035;-77
2023/12/16 06:04:22;;;;;;;16.67;5.38;;;-2.30;99.90;;;;;;4930912;29;20504;-78
2023/12/16 06:06:48;;;;;;;8.95;6.13;;;-2.20;99.90;;;;;;4933151;29;20059;-78
2023/12/16 06:09:13;;;;;;;10.90;6.00;;;-2.30;99.90;;;;;;4925584;29;20031;-82
2023/12/16 06:11:39;;;;;;;12.45;5.55;;;-2.20;99.90;;;;;;4930790;29;20473;-79
2023/12/16 06:14:05;;;;;;;10.15;5.10;;;-1.20;99.90;;;;;;4931275;29;20059;-78
2023/12/16 06:16:30;;;;;;;14.50;6.15;;;-2.10;99.90;;;;;;4919668;29;20024;-78
2023/12/16 06:18:56;;;;;;;8.60;4.95;;;-2.10;99.90;;;;;;4915593;29;20403;-78
2023/12/16 06:21:22;;;;;;;8.65;5.70;;;-1.30;99.90;;;;;;4932961;29;20046;-78
2023/12/16 06:23:47;;;;;;;11.80;6.60;;;-2.30;99.90;;;;;;4919368;29;20032;-78
2023/12/16 06:26:13;;;;;;;9.77;4.95;;;-2.30;99.90;;;;;;4913098;29;20059;-78
2023/12/16 06:28:39;;;;;;;11.00;5.47;;;-2.30;99.90;;;;;;4906067;29;20055;-78
2023/12/16 06:31:05;;;;;;;10.30;5.60;;;-2.50;99.90;;;;;;4918584;29;20500;-78
2023/12/16 06:33:30;;;;;;;13.30;6.38;;;-2.20;99.90;;;;;;4922750;29;20395;-78
2023/12/16 06:35:56;;;;;;;11.70;5.72;;;-2.20;99.90;;;;;;4906090;29;20280;-77
2023/12/16 06:38:22;;;;;;;14.40;6.57;;;-2.10;99.90;;;;;;4910178;29;20527;-80
2023/12/16 06:40:47;;;;;;;13.63;6.38;;;-2.20;99.90;;;;;;4920312;29;20044;-79
2023/12/16 06:43:13;;;;;;;14.20;7.63;;;-2.30;99.90;;;;;;4937112;29;20024;-78
2023/12/16 06:45:39;;;;;;;13.68;7.15;;;-2.30;99.90;;;;;;4924181;29;20052;-78
2023/12/16 06:48:05;;;;;;;16.80;7.30;;;-2.40;99.90;;;;;;4923065;29;20036;-78
2023/12/16 06:50:30;;;;;;;11.98;5.47;;;-1.60;99.90;;;;;;4932498;29;20222;-78
2023/12/16 06:52:56;;;;;;;19.77;5.93;;;-2.30;99.90;;;;;;4941387;29;20315;-78
2023/12/16 06:55:22;;;;;;;12.43;6.05;;;-2.50;99.90;;;;;;4941160;29;20102;-78
2023/12/16 06:57:47;;;;;;;13.77;6.93;;;-2.50;99.90;;;;;;4923482;29;20028;-78
2023/12/16 07:00:13;;;;;;;14.73;6.95;;;-2.40;99.90;;;;;;4922012;29;20035;-78
2023/12/16 07:02:43;;;;;;;23.63;10.77;;;-2.30;99.90;;;;;;4922619;29;20028;-78
2023/12/16 07:05:10;;;;;;;18.48;8.18;;;-2.20;99.90;;;;;;4941216;29;20240;-78
2023/12/16 07:07:36;;;;;;;19.17;9.45;;;-2.10;99.90;;;;;;4933071;29;20091;-78
2023/12/16 07:10:04;;;;;;;13.38;6.50;;;-2.10;99.90;;;;;;4923172;29;20173;-78
2023/12/16 07:12:29;;;;;;;47.30;9.23;;;-2.00;99.90;;;;;;4926155;29;20042;-78
2023/12/16 07:14:55;;;;;;;18.73;9.43;;;-1.70;99.90;;;;;;4912784;29;21742;-78
2023/12/16 07:17:21;;;;;;;16.15;7.60;;;-2.10;99.90;;;;;;4908346;29;20034;-78
2023/12/16 07:19:47;;;;;;;15.27;8.00;;;-2.10;99.90;;;;;;4908450;29;20103;-77
2023/12/16 07:22:16;;;;;;;28.08;8.95;;;-2.10;99.90;;;;;;4907426;29;20034;-78
2023/12/16 07:24:42;;;;;;;42.15;11.95;;;-2.20;99.90;;;;;;4902901;29;20107;-77
2023/12/16 07:27:08;;;;;;;28.50;8.27;;;-2.10;99.90;;;;;;4901614;29;20032;-78
2023/12/16 07:29:34;;;;;;;25.15;9.82;;;-2.10;99.90;;;;;;4907688;29;20087;-78
2023/12/16 07:32:00;;;;;;;27.23;10.07;;;-2.00;99.90;;;;;;4905471;29;20028;-78
2023/12/16 07:34:26;;;;;;;58.42;11.70;;;-0.90;99.90;;;;;;4906387;29;20248;-78
2023/12/16 07:36:52;;;;;;;28.75;10.95;;;-1.80;99.90;;;;;;4907333;29;20103;-78
2023/12/16 07:39:18;;;;;;;43.83;10.45;;;-1.70;99.90;;;;;;4905435;29;20026;-77
2023/12/16 07:41:44;;;;;;;67.15;13.50;;;-0.70;99.90;;;;;;4907862;29;20050;-78
2023/12/16 07:44:11;;;;;;;26.40;10.20;;;-1.60;99.90;;;;;;4905242;29;20340;-78
2023/12/16 07:46:40;;;;;;;28.85;11.95;;;-1.50;99.90;;;;;;4904451;29;20070;-78
2023/12/16 07:49:06;;;;;;;;;;;-1.40;99.90;;;;;;4908621;29;20024;-78
2023/12/16 07:51:32;;;;;;;56.53;11.15;;;-1.40;99.90;;;;;;4905048;29;19926;-77
2023/12/16 07:53:58;;;;;;;33.25;11.50;;;-1.30;99.90;;;;;;4908919;29;20184;-78
2023/12/16 07:56:26;;;;;;;39.20;10.52;;;-1.10;99.90;;;;;;4908312;29;20024;-78
2023/12/16 07:58:52;;;;;;;33.17;9.95;;;-1.20;99.90;;;;;;4905974;29;20019;-78
2023/12/16 08:01:19;;;;;;;25.65;10.13;;;-1.20;99.90;;;;;;4906869;29;20044;-78
2023/12/16 08:03:46;;;;;;;24.38;8.40;;;-1.10;99.90;;;;;;4906911;29;20020;-78
2023/12/16 08:06:14;;;;;;;42.55;12.43;;;-1.00;99.90;;;;;;4909812;29;20051;-78
2023/12/16 08:08:41;;;;;;;18.50;8.47;;;-1.20;99.90;;;;;;4912049;29;20370;-78
2023/12/16 08:11:08;;;;;;;36.80;6.95;;;-0.60;99.90;;;;;;4912350;29;20284;-79
2023/12/16 08:13:35;;;;;;;11.85;6.70;;;-1.10;99.90;;;;;;4911471;29;20016;-78
2023/12/16 08:16:01;;;;;;;11.85;6.65;;;-1.00;99.90;;;;;;4911499;29;20019;-78
2023/12/16 08:18:28;;;;;;;14.98;7.07;;;-1.00;99.90;;;;;;4906395;29;20179;-78
2023/12/16 08:20:54;;;;;;;11.52;6.43;;;-0.40;99.90;;;;;;4902326;29;20507;-78
2023/12/16 08:23:21;;;;;;;11.30;7.13;;;-0.90;99.90;;;;;;4909240;29;20836;-78
2023/12/16 08:25:47;;;;;;;21.10;6.55;;;-0.80;99.90;;;;;;4924085;29;20219;-77
2023/12/16 08:28:13;;;;;;;12.40;6.68;;;-0.70;99.90;;;;;;4946165;29;20067;-79
2023/12/16 08:30:39;;;;;;;12.30;6.53;;;-0.70;99.90;;;;;;4945321;29;20222;-80
2023/12/16 08:33:04;;;;;;;19.98;7.97;;;-0.70;99.90;;;;;;4917067;29;20049;-79
2023/12/16 08:35:30;;;;;;;13.25;7.05;;;-0.60;99.90;;;;;;4922122;29;20040;-80
2023/12/16 08:37:56;;;;;;;7.90;4.55;;;-0.50;99.90;;;;;;4915296;29;20032;-79
2023/12/16 08:40:23;;;;;;;9.35;6.07;;;-0.50;99.90;;;;;;4915253;29;20532;-79
2023/12/16 08:42:48;;;;;;;11.68;5.45;;;-0.40;99.90;;;;;;4912473;29;20079;-80
2023/12/16 08:45:15;;;;;;;9.13;6.35;;;-0.40;99.90;;;;;;4920862;29;20024;-80
2023/12/16 08:47:40;;;;;;;13.32;5.82;;;0.00;99.90;;;;;;4926791;29;20050;-80
2023/12/16 08:50:07;;;;;;;17.27;7.95;;;0.40;99.90;;;;;;4926029;29;20224;-80
2023/12/16 08:52:33;;;;;;;10.18;6.07;;;-0.20;99.90;;;;;;4926154;29;20132;-81
2023/12/16 08:55:00;;;;;;;11.13;5.32;;;0.10;99.90;;;;;;4925334;29;20016;-80
2023/12/16 08:57:26;;;;;;;10.30;5.68;;;-0.10;99.90;;;;;;4912373;29;20032;-80
2023/12/16 08:59:52;;;;;;;9.63;5.07;;;0.00;99.90;;;;;;4915414;29;20024;-81
2023/12/16 09:02:18;;;;;;;17.63;6.53;;;0.00;99.90;;;;;;4908320;29;20169;-79
2023/12/16 09:04:43;;;;;;;12.70;7.25;;;0.10;99.90;;;;;;4925112;29;20115;-74
2023/12/16 09:07:09;;;;;;;12.75;6.85;;;0.00;99.90;;;;;;4918358;29;20066;-79
2023/12/16 09:09:35;;;;;;;12.95;7.00;;;-0.10;99.90;;;;;;4900989;29;20559;-79
2023/12/16 09:12:00;;;;;;;15.63;8.60;;;0.00;99.90;;;;;;4907940;29;20020;-79
2023/12/16 09:14:26;;;;;;;41.90;12.63;;;0.50;99.90;;;;;;4916283;29;20110;-80
2023/12/16 09:16:51;;;;;;;23.08;8.15;;;0.10;99.90;;;;;;4930616;29;20066;-80
2023/12/16 09:19:17;;;;;;;10.40;6.95;;;0.20;99.90;;;;;;4935346;29;20031;-79
2023/12/16 09:21:43;;;;;;;12.07;6.22;;;0.10;99.90;;;;;;4918821;29;20044;-79
2023/12/16 09:24:09;;;;;;;18.10;7.00;;;-0.10;99.90;;;;;;4921015;29;20071;-81
2023/12/16 09:26:35;;;;;;;18.92;6.50;;;0.00;99.90;;;;;;4916254;29;20032;-83
2023/12/16 09:29:04;;;;;;;22.10;6.90;;;-0.10;99.90;;;;;;4921452;29;20030;-80
2023/12/16 09:31:31;;;;;;;20.65;7.50;;;-0.20;99.90;;;;;;4939055;29;20031;-82
2023/12/16 09:34:08;;;;;;;35.92;8.10;;;-0.20;99.90;;;;;;4953480;29;20055;-86
2023/12/16 09:36:34;;;;;;;23.77;8.88;;;0.00;99.90;;;;;;4935441;29;20032;-85
2023/12/16 09:39:00;;;;;;;23.20;8.50;;;0.20;99.90;;;;;;4938109;29;20024;-82
2023/12/16 09:41:28;;;;;;;16.83;8.38;;;0.30;99.90;;;;;;4932133;29;20051;-80
2023/12/16 09:43:58;;;;;;;34.65;11.20;;;0.40;99.90;;;;;;4928189;29;20099;-82
2023/12/16 09:46:28;;;;;;;21.65;9.27;;;0.50;99.90;;;;;;4924295;29;20026;-81
2023/12/16 09:48:54;;;;;;;;;;;0.50;99.90;;;;;;4932792;29;20051;-82
2023/12/16 09:51:22;;;;;;;18.17;7.35;;;0.60;99.90;;;;;;4916465;29;20379;-79
2023/12/16 09:53:56;;;;;;;14.93;6.53;;;0.80;99.90;;;;;;4894848;29;20178;-79
2023/12/16 09:56:22;;;;;;;17.25;6.80;;;0.90;99.90;;;;;;4922347;29;20047;-79
2023/12/16 09:58:51;;;;;;;14.20;7.10;;;0.90;99.90;;;;;;4912781;29;20149;-81
2023/12/16 10:01:17;;;;;;;13.80;7.10;;;1.10;99.90;;;;;;4916857;29;20044;-82
2023/12/16 10:03:56;;;;;;;29.52;12.30;;;1.00;99.90;;;;;;4939472;29;20034;-83
2023/12/16 10:06:26;;;;;;;11.83;6.40;;;1.40;99.90;;;;;;4940608;29;20044;-83
2023/12/16 10:08:52;;;;;;;11.23;6.93;;;0.90;99.90;;;;;;4926491;29;20339;-82
2023/12/16 10:11:18;;;;;;;8.68;5.72;;;0.90;99.90;;;;;;4918154;29;20024;-84
2023/12/16 10:14:05;;;;;;;9.02;5.70;;;0.80;99.90;;;;;;4929528;29;20023;-84
2023/12/16 10:16:55;;;;;;;10.48;6.00;;;0.80;99.90;;;;;;4934330;29;20023;-83
2023/12/16 10:19:44;;;;;;;9.00;5.78;;;0.80;99.90;;;;;;4911512;29;20228;-83
2023/12/16 10:22:49;;;;;;;8.40;5.60;;;0.80;99.90;;;;;;4894618;29;20036;-83
2023/12/16 10:26:09;;;;;;;10.43;6.65;;;0.80;99.90;;;;;;4915779;29;20032;-83
2023/12/16 10:28:38;;;;;;;12.45;7.75;;;0.80;99.90;;;;;;4898684;29;20083;-83
2023/12/16 10:31:11;;;;;;;12.15;7.22;;;0.90;99.90;;;;;;4918497;29;20027;-83
2023/12/16 10:33:55;;;;;;;12.80;7.97;;;0.80;99.90;;;;;;4920324;29;20031;-83
2023/12/16 10:36:42;;;;;;;13.05;7.72;;;1.00;99.90;;;;;;4959662;29;20023;-85
2023/12/16 10:39:28;;;;;;;14.88;9.07;;;1.00;99.90;;;;;;4932229;29;20055;-83
2023/12/16 10:42:10;;;;;;;17.30;9.40;;;0.90;99.90;;;;;;4907381;29;20497;-82
2023/12/16 10:44:39;;;;;;;17.83;9.93;;;0.90;99.90;;;;;;4907216;29;20366;-81
2023/12/16 10:47:28;;;;;;;26.05;12.23;;;1.10;99.90;;;;;;4933559;29;20039;-83
2023/12/16 10:49:59;;;;;;;19.45;10.00;;;1.10;99.90;;;;;;4922423;29;20373;-82
2023/12/16 10:52:30;;;;;;;19.15;10.88;;;2.30;99.90;;;;;;4916414;29;20583;-82
2023/12/16 10:55:01;;;;;;;32.00;12.40;;;1.30;99.90;;;;;;4896912;29;20043;-81
2023/12/16 10:57:59;;;;;;;16.42;8.65;;;1.30;99.90;;;;;;4896127;29;20035;-80
2023/12/16 11:00:28;;;;;;;16.65;9.40;;;1.40;99.90;;;;;;4899429;29;20060;-80
2023/12/16 11:03:00;;;;;;;;;;;1.40;99.90;;;;;;4908652;29;20036;-82
2023/12/16 11:05:36;;;;;;;44.72;19.90;;;1.50;99.90;;;;;;4915888;29;19962;-81
2023/12/16 11:08:03;;;;;;;16.00;8.15;;;1.60;99.90;;;;;;4906271;29;20979;-82
2023/12/16 11:10:31;;;;;;;12.45;7.20;;;1.70;99.90;;;;;;4909082;29;20054;-82
2023/12/16 11:13:04;;;;;;;15.20;8.27;;;1.80;99.90;;;;;;4915743;29;20035;-83
2023/12/16 11:15:32;;;;;;;20.67;10.07;;;1.80;99.90;;;;;;4930830;29;20032;-80
2023/12/16 11:18:15;;;;;;;15.15;8.73;;;1.80;99.90;;;;;;4912225;29;20103;-82
2023/12/16 11:20:45;;;;;;;20.40;10.15;;;1.60;99.90;;;;;;4916588;29;20035;-82
2023/12/16 11:23:11;;;;;;;21.23;9.52;;;1.80;99.90;;;;;;4917863;29;21630;-82
2023/12/16 11:25:37;;;;;;;55.38;12.10;;;1.90;99.90;;;;;;4913731;29;20099;-78
2023/12/16 11:28:13;;;;;;;23.25;11.43;;;1.90;99.90;;;;;;4918661;29;20032;-81
2023/12/16 11:30:40;;;;;;;18.35;10.18;;;1.90;99.90;;;;;;4916212;29;20024;-82
2023/12/16 11:33:59;;;;;;;18.75;10.15;;;1.90;99.90;;;;;;4919734;29;20047;-81
2023/12/16 11:37:02;;;;;;;19.80;10.95;;;1.90;99.90;;;;;;4925238;29;20023;-82
2023/12/16 11:39:36;;;;;;;36.03;19.65;;;2.10;99.90;;;;;;4924538;29;20031;-78
2023/12/16 11:42:05;;;;;;;21.92;10.45;;;2.20;99.90;;;;;;4917183;29;20335;-83
2023/12/16 11:45:09;;;;;;;18.17;10.07;;;2.20;99.90;;;;;;4912352;29;20055;-79
2023/12/16 11:47:35;;;;;;;20.67;10.40;;;2.30;99.90;;;;;;4909764;29;20043;-82
2023/12/16 11:50:01;;;;;;;21.20;8.98;;;2.30;99.90;;;;;;4917849;29;20043;-79
2023/12/16 11:52:29;;;;;;;29.58;13.48;;;2.40;99.90;;;;;;4919295;29;20047;-82
2023/12/16 11:55:17;;;;;;;46.60;14.33;;;2.40;99.90;;;;;;4919116;29;20024;-81
2023/12/16 11:58:27;;;;;;;30.70;12.45;;;2.50;99.90;;;;;;4922319;29;20276;-79
2023/12/16 12:00:53;;;;;;;24.70;9.15;;;2.50;99.90;;;;;;4923988;29;20407;-82
2023/12/16 12:03:21;;;;;;;20.00;10.45;;;2.60;99.90;;;;;;4920179;29;20103;-83
2023/12/16 12:05:51;;;;;;;19.75;10.45;;;2.50;99.90;;;;;;4922257;29;20023;-83
2023/12/16 12:11:27;;;;;;;25.70;11.57;;;2.60;99.90;;;;;;4847275;29;20033;-79
2023/12/16 12:13:59;;;;;;;17.00;10.73;;;2.80;99.90;;;;;;4865566;29;20112;-83
2023/12/16 12:16:29;;;;;;;21.35;10.57;;;4.20;99.90;;;;;;4920238;29;20028;-80
2023/12/16 12:18:56;;;;;;;24.48;10.23;;;2.80;99.90;;;;;;4926330;29;20038;-79
2023/12/16 12:21:33;;;;;;;20.38;10.13;;;2.90;99.90;;;;;;4924510;29;20128;-83
2023/12/16 12:24:13;;;;;;;21.52;10.25;;;2.80;99.90;;;;;;4924248;29;20015;-81
2023/12/16 12:26:42;;;;;;;;;;;2.80;99.90;;;;;;4924968;29;20079;-78
2023/12/16 12:29:08;;;;;;;23.23;12.00;;;2.80;99.90;;;;;;4904002;29;19925;-79
2023/12/16 12:31:45;;;;;;;26.35;12.93;;;2.80;99.90;;;;;;4922566;29;20063;-78
2023/12/16 12:34:28;;;;;;;18.77;8.35;;;3.00;99.90;;;;;;4925716;29;20205;-78
2023/12/16 12:36:55;;;;;;;20.27;9.82;;;3.00;99.90;;;;;;4927221;29;20026;-81
2023/12/16 12:39:21;;;;;;;18.17;10.98;;;3.10;99.90;;;;;;4922617;29;20398;-82
2023/12/16 12:42:01;;;;;;;22.55;11.52;;;3.10;99.90;;;;;;4925731;29;20063;-83
2023/12/16 12:44:30;;;;;;;24.60;11.25;;;3.30;99.90;;;;;;4925685;29;20020;-83
2023/12/16 12:46:58;;;;;;;20.35;10.45;;;3.30;99.90;;;;;;4939232;29;20028;-83
2023/12/16 12:49:31;;;;;;;20.63;11.48;;;3.30;99.90;;;;;;4950203;29;20027;-84